sensor_id;sensor_type;location;lat;lon;timestamp;P1;durP1;ratioP1;P2;durP2;ratioP2
17038;SDS011;8636;55.750;13.202;2023-05-29T00:00:25;11.43;;;2.33;;
17038;SDS011;8636;55.750;13.202;2023-05-29T00:03:00;11.00;;;2.13;;
17038;SDS011;8636;55.750;13.202;2023-05-29T00:05:31;13.07;;;2.70;;
17038;SDS011;8636;55.750;13.202;2023-05-29T00:07:59;8.97;;;2.40;;
17038;SDS011;8636;55.750;13.202;2023-05-29T00:10:33;16.53;;;2.80;;
17038;SDS011;8636;55.750;13.202;2023-05-29T00:13:01;8.97;;;2.67;;
17038;SDS011;8636;55.750;13.202;2023-05-29T00:15:33;12.10;;;2.63;;
17038;SDS011;8636;55.750;13.202;2023-05-29T00:18:07;8.60;;;2.53;;
17038;SDS011;8636;55.750;13.202;2023-05-29T00:20:35;9.40;;;2.37;;
17038;SDS011;8636;55.750;13.202;2023-05-29T00:23:04;8.80;;;2.70;;
17038;SDS011;8636;55.750;13.202;2023-05-29T00:25:39;10.97;;;3.03;;
17038;SDS011;8636;55.750;13.202;2023-05-29T00:28:07;14.73;;;2.83;;
17038;SDS011;8636;55.750;13.202;2023-05-29T00:30:39;13.73;;;2.53;;
17038;SDS011;8636;55.750;13.202;2023-05-29T00:33:14;9.27;;;2.47;;
17038;SDS011;8636;55.750;13.202;2023-05-29T00:35:42;12.30;;;2.73;;
17038;SDS011;8636;55.750;13.202;2023-05-29T00:38:10;12.50;;;3.13;;
17038;SDS011;8636;55.750;13.202;2023-05-29T00:40:44;10.57;;;2.53;;
17038;SDS011;8636;55.750;13.202;2023-05-29T00:43:18;7.20;;;2.80;;
17038;SDS011;8636;55.750;13.202;2023-05-29T00:45:54;11.70;;;2.80;;
17038;SDS011;8636;55.750;13.202;2023-05-29T00:48:23;12.27;;;2.63;;
17038;SDS011;8636;55.750;13.202;2023-05-29T00:50:51;10.53;;;2.60;;
17038;SDS011;8636;55.750;13.202;2023-05-29T00:53:26;8.80;;;2.77;;
17038;SDS011;8636;55.750;13.202;2023-05-29T00:55:55;9.60;;;2.67;;
17038;SDS011;8636;55.750;13.202;2023-05-29T00:58:23;11.60;;;2.57;;
17038;SDS011;8636;55.750;13.202;2023-05-29T01:01:00;13.00;;;3.10;;
17038;SDS011;8636;55.750;13.202;2023-05-29T01:03:29;10.67;;;2.77;;
17038;SDS011;8636;55.750;13.202;2023-05-29T01:05:58;14.23;;;2.80;;
17038;SDS011;8636;55.750;13.202;2023-05-29T01:08:33;13.70;;;3.43;;
17038;SDS011;8636;55.750;13.202;2023-05-29T01:11:04;11.60;;;2.90;;
17038;SDS011;8636;55.750;13.202;2023-05-29T01:13:45;11.67;;;3.07;;
17038;SDS011;8636;55.750;13.202;2023-05-29T01:16:16;14.10;;;3.30;;
17038;SDS011;8636;55.750;13.202;2023-05-29T01:19:00;14.03;;;2.87;;
17038;SDS011;8636;55.750;13.202;2023-05-29T01:21:42;15.77;;;3.20;;
17038;SDS011;8636;55.750;13.202;2023-05-29T01:24:32;14.23;;;3.63;;
17038;SDS011;8636;55.750;13.202;2023-05-29T01:27:11;15.47;;;3.10;;
17038;SDS011;8636;55.750;13.202;2023-05-29T01:29:49;16.80;;;3.70;;
17038;SDS011;8636;55.750;13.202;2023-05-29T01:32:19;8.90;;;3.10;;
17038;SDS011;8636;55.750;13.202;2023-05-29T01:34:48;11.33;;;3.23;;
17038;SDS011;8636;55.750;13.202;2023-05-29T01:37:22;14.63;;;2.97;;
17038;SDS011;8636;55.750;13.202;2023-05-29T01:39:50;20.40;;;3.83;;
17038;SDS011;8636;55.750;13.202;2023-05-29T01:42:20;18.63;;;3.50;;
17038;SDS011;8636;55.750;13.202;2023-05-29T01:44:55;19.30;;;3.53;;
17038;SDS011;8636;55.750;13.202;2023-05-29T01:47:25;12.80;;;3.40;;
17038;SDS011;8636;55.750;13.202;2023-05-29T01:49:54;14.77;;;3.73;;
17038;SDS011;8636;55.750;13.202;2023-05-29T01:52:29;18.03;;;3.67;;
17038;SDS011;8636;55.750;13.202;2023-05-29T01:54:57;15.20;;;3.47;;
17038;SDS011;8636;55.750;13.202;2023-05-29T01:57:27;17.37;;;3.73;;
17038;SDS011;8636;55.750;13.202;2023-05-29T02:00:02;12.23;;;3.20;;
17038;SDS011;8636;55.750;13.202;2023-05-29T02:02:36;11.27;;;3.30;;
17038;SDS011;8636;55.750;13.202;2023-05-29T02:05:11;20.90;;;3.90;;
17038;SDS011;8636;55.750;13.202;2023-05-29T02:07:39;17.27;;;3.40;;
17038;SDS011;8636;55.750;13.202;2023-05-29T02:10:07;19.87;;;3.80;;
17038;SDS011;8636;55.750;13.202;2023-05-29T02:12:44;11.97;;;3.60;;
17038;SDS011;8636;55.750;13.202;2023-05-29T02:15:12;17.33;;;3.60;;
17038;SDS011;8636;55.750;13.202;2023-05-29T02:17:40;17.87;;;3.50;;
17038;SDS011;8636;55.750;13.202;2023-05-29T02:20:14;14.67;;;4.03;;
17038;SDS011;8636;55.750;13.202;2023-05-29T02:22:43;18.67;;;3.87;;
17038;SDS011;8636;55.750;13.202;2023-05-29T02:25:12;18.37;;;3.57;;
17038;SDS011;8636;55.750;13.202;2023-05-29T02:27:48;17.67;;;3.87;;
17038;SDS011;8636;55.750;13.202;2023-05-29T02:30:16;22.63;;;4.17;;
17038;SDS011;8636;55.750;13.202;2023-05-29T02:32:44;15.47;;;3.80;;
17038;SDS011;8636;55.750;13.202;2023-05-29T02:35:18;15.37;;;4.43;;
17038;SDS011;8636;55.750;13.202;2023-05-29T02:37:49;20.97;;;4.83;;
17038;SDS011;8636;55.750;13.202;2023-05-29T02:40:17;20.13;;;4.10;;
17038;SDS011;8636;55.750;13.202;2023-05-29T02:43:00;19.60;;;4.60;;
17038;SDS011;8636;55.750;13.202;2023-05-29T02:45:28;17.17;;;4.33;;
17038;SDS011;8636;55.750;13.202;2023-05-29T02:48:03;20.83;;;4.80;;
17038;SDS011;8636;55.750;13.202;2023-05-29T02:50:32;24.33;;;4.10;;
17038;SDS011;8636;55.750;13.202;2023-05-29T02:53:00;17.87;;;4.40;;
17038;SDS011;8636;55.750;13.202;2023-05-29T02:55:34;20.33;;;4.50;;
17038;SDS011;8636;55.750;13.202;2023-05-29T02:58:04;23.07;;;4.47;;
17038;SDS011;8636;55.750;13.202;2023-05-29T03:00:32;20.00;;;4.50;;
17038;SDS011;8636;55.750;13.202;2023-05-29T03:03:07;20.00;;;3.97;;
17038;SDS011;8636;55.750;13.202;2023-05-29T03:05:35;17.70;;;4.40;;
17038;SDS011;8636;55.750;13.202;2023-05-29T03:08:03;15.20;;;3.77;;
17038;SDS011;8636;55.750;13.202;2023-05-29T03:10:38;18.33;;;3.30;;
17038;SDS011;8636;55.750;13.202;2023-05-29T03:13:07;19.27;;;4.03;;
17038;SDS011;8636;55.750;13.202;2023-05-29T03:15:36;21.60;;;3.73;;
17038;SDS011;8636;55.750;13.202;2023-05-29T03:18:10;16.17;;;4.00;;
17038;SDS011;8636;55.750;13.202;2023-05-29T03:20:38;12.50;;;3.53;;
17038;SDS011;8636;55.750;13.202;2023-05-29T03:23:07;11.63;;;3.90;;
17038;SDS011;8636;55.750;13.202;2023-05-29T03:25:41;20.20;;;3.60;;
17038;SDS011;8636;55.750;13.202;2023-05-29T03:28:11;16.30;;;3.20;;
17038;SDS011;8636;55.750;13.202;2023-05-29T03:30:52;11.53;;;2.90;;
17038;SDS011;8636;55.750;13.202;2023-05-29T03:33:20;15.60;;;3.60;;
17038;SDS011;8636;55.750;13.202;2023-05-29T03:35:48;12.33;;;2.97;;
17038;SDS011;8636;55.750;13.202;2023-05-29T03:38:23;13.13;;;3.03;;
17038;SDS011;8636;55.750;13.202;2023-05-29T03:40:58;9.67;;;3.43;;
17038;SDS011;8636;55.750;13.202;2023-05-29T03:43:41;10.20;;;3.30;;
17038;SDS011;8636;55.750;13.202;2023-05-29T03:46:09;14.80;;;3.50;;
17038;SDS011;8636;55.750;13.202;2023-05-29T03:48:37;11.00;;;3.20;;
17038;SDS011;8636;55.750;13.202;2023-05-29T03:51:14;15.60;;;3.97;;
17038;SDS011;8636;55.750;13.202;2023-05-29T03:53:42;14.60;;;4.00;;
17038;SDS011;8636;55.750;13.202;2023-05-29T03:56:10;15.83;;;3.73;;
17038;SDS011;8636;55.750;13.202;2023-05-29T03:58:46;9.60;;;3.10;;
17038;SDS011;8636;55.750;13.202;2023-05-29T04:01:14;16.80;;;4.00;;
17038;SDS011;8636;55.750;13.202;2023-05-29T04:03:42;12.90;;;3.17;;
17038;SDS011;8636;55.750;13.202;2023-05-29T04:06:17;13.63;;;3.40;;
17038;SDS011;8636;55.750;13.202;2023-05-29T04:08:45;10.98;;;3.00;;
17038;SDS011;8636;55.750;13.202;2023-05-29T04:11:13;12.23;;;3.30;;
17038;SDS011;8636;55.750;13.202;2023-05-29T04:13:50;9.60;;;3.65;;
17038;SDS011;8636;55.750;13.202;2023-05-29T04:16:18;15.00;;;4.13;;
17038;SDS011;8636;55.750;13.202;2023-05-29T04:18:46;12.63;;;3.42;;
17038;SDS011;8636;55.750;13.202;2023-05-29T04:21:21;14.77;;;3.53;;
17038;SDS011;8636;55.750;13.202;2023-05-29T04:23:49;16.10;;;4.60;;
17038;SDS011;8636;55.750;13.202;2023-05-29T04:26:16;10.90;;;3.10;;
17038;SDS011;8636;55.750;13.202;2023-05-29T04:28:53;12.02;;;3.40;;
17038;SDS011;8636;55.750;13.202;2023-05-29T04:31:23;13.55;;;3.13;;
17038;SDS011;8636;55.750;13.202;2023-05-29T04:33:59;10.82;;;3.50;;
17038;SDS011;8636;55.750;13.202;2023-05-29T04:36:30;14.02;;;3.25;;
17038;SDS011;8636;55.750;13.202;2023-05-29T04:39:06;10.82;;;3.28;;
17038;SDS011;8636;55.750;13.202;2023-05-29T04:41:41;15.10;;;3.25;;
17038;SDS011;8636;55.750;13.202;2023-05-29T04:44:24;13.73;;;3.33;;
17038;SDS011;8636;55.750;13.202;2023-05-29T04:46:53;12.32;;;3.63;;
17038;SDS011;8636;55.750;13.202;2023-05-29T04:49:21;12.25;;;3.30;;
17038;SDS011;8636;55.750;13.202;2023-05-29T04:51:55;11.70;;;3.58;;
17038;SDS011;8636;55.750;13.202;2023-05-29T04:54:26;11.63;;;3.30;;
17038;SDS011;8636;55.750;13.202;2023-05-29T04:56:54;13.35;;;3.22;;
17038;SDS011;8636;55.750;13.202;2023-05-29T04:59:31;12.77;;;3.35;;
17038;SDS011;8636;55.750;13.202;2023-05-29T05:01:59;10.23;;;2.75;;
17038;SDS011;8636;55.750;13.202;2023-05-29T05:04:27;8.98;;;3.20;;
17038;SDS011;8636;55.750;13.202;2023-05-29T05:07:01;10.40;;;3.35;;
17038;SDS011;8636;55.750;13.202;2023-05-29T05:09:29;10.75;;;3.22;;
17038;SDS011;8636;55.750;13.202;2023-05-29T05:11:58;11.50;;;3.30;;
17038;SDS011;8636;55.750;13.202;2023-05-29T05:14:34;11.52;;;3.40;;
17038;SDS011;8636;55.750;13.202;2023-05-29T05:17:01;11.80;;;3.00;;
17038;SDS011;8636;55.750;13.202;2023-05-29T05:19:29;13.10;;;3.58;;
17038;SDS011;8636;55.750;13.202;2023-05-29T05:22:05;13.38;;;3.75;;
17038;SDS011;8636;55.750;13.202;2023-05-29T05:24:33;15.55;;;3.10;;
17038;SDS011;8636;55.750;13.202;2023-05-29T05:27:01;12.02;;;2.95;;
17038;SDS011;8636;55.750;13.202;2023-05-29T05:29:37;12.00;;;3.08;;
17038;SDS011;8636;55.750;13.202;2023-05-29T05:32:05;11.52;;;3.20;;
17038;SDS011;8636;55.750;13.202;2023-05-29T05:34:34;15.27;;;4.00;;
17038;SDS011;8636;55.750;13.202;2023-05-29T05:37:09;13.90;;;3.08;;
17038;SDS011;8636;55.750;13.202;2023-05-29T05:39:37;12.55;;;4.13;;
17038;SDS011;8636;55.750;13.202;2023-05-29T05:42:05;13.43;;;3.30;;
17038;SDS011;8636;55.750;13.202;2023-05-29T05:44:41;11.73;;;2.97;;
17038;SDS011;8636;55.750;13.202;2023-05-29T05:47:09;13.32;;;3.25;;
17038;SDS011;8636;55.750;13.202;2023-05-29T05:49:37;8.57;;;3.25;;
17038;SDS011;8636;55.750;13.202;2023-05-29T05:52:11;8.45;;;3.67;;
17038;SDS011;8636;55.750;13.202;2023-05-29T05:54:39;13.52;;;3.45;;
17038;SDS011;8636;55.750;13.202;2023-05-29T05:57:07;13.10;;;3.92;;
17038;SDS011;8636;55.750;13.202;2023-05-29T05:59:44;14.52;;;3.67;;
17038;SDS011;8636;55.750;13.202;2023-05-29T06:02:12;13.95;;;3.72;;
17038;SDS011;8636;55.750;13.202;2023-05-29T06:04:40;10.63;;;3.30;;
17038;SDS011;8636;55.750;13.202;2023-05-29T06:07:15;10.65;;;3.22;;
17038;SDS011;8636;55.750;13.202;2023-05-29T06:09:43;10.38;;;2.80;;
17038;SDS011;8636;55.750;13.202;2023-05-29T06:12:11;14.40;;;3.50;;
17038;SDS011;8636;55.750;13.202;2023-05-29T06:14:48;16.20;;;3.30;;
17038;SDS011;8636;55.750;13.202;2023-05-29T06:17:16;8.68;;;2.80;;
17038;SDS011;8636;55.750;13.202;2023-05-29T06:19:48;13.02;;;3.58;;
17038;SDS011;8636;55.750;13.202;2023-05-29T06:22:23;10.43;;;3.05;;
17038;SDS011;8636;55.750;13.202;2023-05-29T06:24:52;9.73;;;3.33;;
17038;SDS011;8636;55.750;13.202;2023-05-29T06:27:20;13.02;;;3.65;;
17038;SDS011;8636;55.750;13.202;2023-05-29T06:30:00;12.80;;;2.92;;
17038;SDS011;8636;55.750;13.202;2023-05-29T06:32:28;10.45;;;2.60;;
17038;SDS011;8636;55.750;13.202;2023-05-29T06:34:56;11.82;;;2.58;;
17038;SDS011;8636;55.750;13.202;2023-05-29T06:37:31;9.85;;;3.15;;
17038;SDS011;8636;55.750;13.202;2023-05-29T06:39:59;10.82;;;2.35;;
17038;SDS011;8636;55.750;13.202;2023-05-29T06:42:27;11.25;;;3.00;;
17038;SDS011;8636;55.750;13.202;2023-05-29T06:45:10;15.25;;;3.70;;
17038;SDS011;8636;55.750;13.202;2023-05-29T06:47:39;8.75;;;3.08;;
17038;SDS011;8636;55.750;13.202;2023-05-29T06:50:14;9.20;;;2.60;;
17038;SDS011;8636;55.750;13.202;2023-05-29T06:52:42;9.00;;;3.13;;
17038;SDS011;8636;55.750;13.202;2023-05-29T06:55:10;12.25;;;2.90;;
17038;SDS011;8636;55.750;13.202;2023-05-29T06:57:44;10.00;;;3.00;;
17038;SDS011;8636;55.750;13.202;2023-05-29T07:00:14;9.27;;;2.80;;
17038;SDS011;8636;55.750;13.202;2023-05-29T07:02:43;10.23;;;3.15;;
17038;SDS011;8636;55.750;13.202;2023-05-29T07:05:18;10.52;;;2.70;;
17038;SDS011;8636;55.750;13.202;2023-05-29T07:07:46;12.00;;;2.88;;
17038;SDS011;8636;55.750;13.202;2023-05-29T07:10:16;10.90;;;3.13;;
17038;SDS011;8636;55.750;13.202;2023-05-29T07:12:50;13.43;;;2.97;;
17038;SDS011;8636;55.750;13.202;2023-05-29T07:15:20;11.80;;;3.10;;
17038;SDS011;8636;55.750;13.202;2023-05-29T07:17:48;9.20;;;2.65;;
17038;SDS011;8636;55.750;13.202;2023-05-29T07:20:22;10.80;;;2.75;;
17038;SDS011;8636;55.750;13.202;2023-05-29T07:22:50;13.43;;;3.30;;
17038;SDS011;8636;55.750;13.202;2023-05-29T07:25:18;11.13;;;3.10;;
17038;SDS011;8636;55.750;13.202;2023-05-29T07:27:53;12.88;;;3.30;;
17038;SDS011;8636;55.750;13.202;2023-05-29T07:30:22;8.77;;;2.45;;
17038;SDS011;8636;55.750;13.202;2023-05-29T07:32:50;15.48;;;3.65;;
17038;SDS011;8636;55.750;13.202;2023-05-29T07:35:25;11.38;;;3.55;;
17038;SDS011;8636;55.750;13.202;2023-05-29T07:37:54;8.57;;;2.70;;
17038;SDS011;8636;55.750;13.202;2023-05-29T07:40:22;5.68;;;2.05;;
17038;SDS011;8636;55.750;13.202;2023-05-29T07:42:56;10.27;;;2.40;;
17038;SDS011;8636;55.750;13.202;2023-05-29T07:45:32;6.70;;;2.08;;
17038;SDS011;8636;55.750;13.202;2023-05-29T07:48:06;10.05;;;2.80;;
17038;SDS011;8636;55.750;13.202;2023-05-29T07:50:34;6.82;;;2.40;;
17038;SDS011;8636;55.750;13.202;2023-05-29T07:53:03;5.68;;;2.00;;
17038;SDS011;8636;55.750;13.202;2023-05-29T07:55:37;9.15;;;2.42;;
17038;SDS011;8636;55.750;13.202;2023-05-29T07:58:05;8.73;;;2.35;;
17038;SDS011;8636;55.750;13.202;2023-05-29T08:00:40;9.95;;;2.60;;
17038;SDS011;8636;55.750;13.202;2023-05-29T08:03:14;9.27;;;2.10;;
17038;SDS011;8636;55.750;13.202;2023-05-29T08:05:44;5.35;;;1.95;;
17038;SDS011;8636;55.750;13.202;2023-05-29T08:08:12;6.32;;;1.88;;
17038;SDS011;8636;55.750;13.202;2023-05-29T08:10:46;5.85;;;2.13;;
17038;SDS011;8636;55.750;13.202;2023-05-29T08:13:14;7.93;;;2.10;;
17038;SDS011;8636;55.750;13.202;2023-05-29T08:15:44;5.78;;;2.10;;
17038;SDS011;8636;55.750;13.202;2023-05-29T08:18:19;8.40;;;1.88;;
17038;SDS011;8636;55.750;13.202;2023-05-29T08:20:46;7.07;;;1.98;;
17038;SDS011;8636;55.750;13.202;2023-05-29T08:23:16;4.57;;;1.55;;
17038;SDS011;8636;55.750;13.202;2023-05-29T08:25:51;6.18;;;2.05;;
17038;SDS011;8636;55.750;13.202;2023-05-29T08:28:20;8.25;;;2.28;;
17038;SDS011;8636;55.750;13.202;2023-05-29T08:30:50;6.97;;;2.40;;
17038;SDS011;8636;55.750;13.202;2023-05-29T08:33:25;6.38;;;2.00;;
17038;SDS011;8636;55.750;13.202;2023-05-29T08:35:52;4.35;;;1.75;;
17038;SDS011;8636;55.750;13.202;2023-05-29T08:38:20;8.48;;;1.80;;
17038;SDS011;8636;55.750;13.202;2023-05-29T08:40:59;6.50;;;1.92;;
17038;SDS011;8636;55.750;13.202;2023-05-29T08:43:34;6.75;;;1.95;;
17038;SDS011;8636;55.750;13.202;2023-05-29T08:46:11;7.45;;;1.65;;
17038;SDS011;8636;55.750;13.202;2023-05-29T08:48:41;5.68;;;1.75;;
17038;SDS011;8636;55.750;13.202;2023-05-29T08:51:20;5.43;;;1.83;;
17038;SDS011;8636;55.750;13.202;2023-05-29T08:53:55;4.35;;;1.60;;
17038;SDS011;8636;55.750;13.202;2023-05-29T08:56:30;4.45;;;1.73;;
17038;SDS011;8636;55.750;13.202;2023-05-29T08:59:00;5.20;;;1.77;;
17038;SDS011;8636;55.750;13.202;2023-05-29T09:01:34;7.28;;;1.85;;
17038;SDS011;8636;55.750;13.202;2023-05-29T09:04:11;4.60;;;1.90;;
17038;SDS011;8636;55.750;13.202;2023-05-29T09:06:40;6.75;;;1.75;;
17038;SDS011;8636;55.750;13.202;2023-05-29T09:09:09;6.05;;;1.27;;
17038;SDS011;8636;55.750;13.202;2023-05-29T09:11:44;7.30;;;2.10;;
17038;SDS011;8636;55.750;13.202;2023-05-29T09:17:19;3.00;;;1.10;;
17038;SDS011;8636;55.750;13.202;2023-05-29T09:19:47;6.05;;;1.27;;
17038;SDS011;8636;55.750;13.202;2023-05-29T09:22:22;6.03;;;1.20;;
17038;SDS011;8636;55.750;13.202;2023-05-29T09:24:50;3.20;;;0.70;;
17038;SDS011;8636;55.750;13.202;2023-05-29T09:27:19;2.35;;;0.93;;
17038;SDS011;8636;55.750;13.202;2023-05-29T09:29:53;4.47;;;0.90;;
17038;SDS011;8636;55.750;13.202;2023-05-29T09:32:23;3.53;;;1.08;;
17038;SDS011;8636;55.750;13.202;2023-05-29T09:34:50;5.53;;;1.20;;
17038;SDS011;8636;55.750;13.202;2023-05-29T09:37:28;1.75;;;0.80;;
17038;SDS011;8636;55.750;13.202;2023-05-29T09:39:57;2.90;;;0.93;;
17038;SDS011;8636;55.750;13.202;2023-05-29T09:42:25;3.53;;;1.00;;
17038;SDS011;8636;55.750;13.202;2023-05-29T09:44:59;2.28;;;1.00;;
17038;SDS011;8636;55.750;13.202;2023-05-29T09:47:36;2.28;;;0.93;;
17038;SDS011;8636;55.750;13.202;2023-05-29T09:50:17;3.85;;;0.68;;
17038;SDS011;8636;55.750;13.202;2023-05-29T09:52:47;3.63;;;0.80;;
17038;SDS011;8636;55.750;13.202;2023-05-29T09:55:24;4.55;;;1.25;;
17038;SDS011;8636;55.750;13.202;2023-05-29T09:57:54;4.68;;;0.90;;
17038;SDS011;8636;55.750;13.202;2023-05-29T10:00:23;1.33;;;0.85;;
17038;SDS011;8636;55.750;13.202;2023-05-29T10:02:59;2.13;;;0.90;;
17038;SDS011;8636;55.750;13.202;2023-05-29T10:05:27;4.97;;;1.23;;
17038;SDS011;8636;55.750;13.202;2023-05-29T10:07:55;3.30;;;0.90;;
17038;SDS011;8636;55.750;13.202;2023-05-29T10:10:29;3.97;;;1.20;;
17038;SDS011;8636;55.750;13.202;2023-05-29T10:13:00;4.38;;;1.30;;
17038;SDS011;8636;55.750;13.202;2023-05-29T10:15:36;2.40;;;0.90;;
17038;SDS011;8636;55.750;13.202;2023-05-29T10:18:10;5.50;;;1.10;;
17038;SDS011;8636;55.750;13.202;2023-05-29T10:20:53;1.45;;;1.08;;
17038;SDS011;8636;55.750;13.202;2023-05-29T10:23:25;2.50;;;1.52;;
17038;SDS011;8636;55.750;13.202;2023-05-29T10:26:02;2.80;;;1.23;;
17038;SDS011;8636;55.750;13.202;2023-05-29T10:28:46;6.70;;;2.10;;
17038;SDS011;8636;55.750;13.202;2023-05-29T10:31:26;2.53;;;1.00;;
17038;SDS011;8636;55.750;13.202;2023-05-29T10:34:06;4.93;;;1.13;;
17038;SDS011;8636;55.750;13.202;2023-05-29T10:36:49;3.08;;;0.90;;
17038;SDS011;8636;55.750;13.202;2023-05-29T10:39:23;2.22;;;0.85;;
17038;SDS011;8636;55.750;13.202;2023-05-29T10:42:08;2.95;;;0.88;;
17038;SDS011;8636;55.750;13.202;2023-05-29T10:48:41;3.75;;;1.30;;
17038;SDS011;8636;55.750;13.202;2023-05-29T10:54:02;1.98;;;0.85;;
17038;SDS011;8636;55.750;13.202;2023-05-29T10:56:33;1.75;;;0.80;;
17038;SDS011;8636;55.750;13.202;2023-05-29T10:59:01;2.58;;;1.00;;
17038;SDS011;8636;55.750;13.202;2023-05-29T11:01:38;2.83;;;0.95;;
17038;SDS011;8636;55.750;13.202;2023-05-29T11:04:25;1.38;;;1.00;;
17038;SDS011;8636;55.750;13.202;2023-05-29T11:07:02;2.08;;;0.90;;
17038;SDS011;8636;55.750;13.202;2023-05-29T11:09:33;6.20;;;1.05;;
17038;SDS011;8636;55.750;13.202;2023-05-29T11:12:13;2.60;;;0.95;;
17038;SDS011;8636;55.750;13.202;2023-05-29T11:15:03;2.33;;;0.90;;
17038;SDS011;8636;55.750;13.202;2023-05-29T11:17:43;2.67;;;0.80;;
17038;SDS011;8636;55.750;13.202;2023-05-29T11:20:16;2.08;;;1.13;;
17038;SDS011;8636;55.750;13.202;2023-05-29T11:23:02;4.13;;;0.80;;
17038;SDS011;8636;55.750;13.202;2023-05-29T11:25:34;1.90;;;0.88;;
17038;SDS011;8636;55.750;13.202;2023-05-29T11:28:10;1.70;;;0.85;;
17038;SDS011;8636;55.750;13.202;2023-05-29T11:30:45;2.78;;;0.73;;
17038;SDS011;8636;55.750;13.202;2023-05-29T11:33:23;2.30;;;1.08;;
17038;SDS011;8636;55.750;13.202;2023-05-29T11:35:56;3.30;;;0.88;;
17038;SDS011;8636;55.750;13.202;2023-05-29T11:38:33;1.73;;;0.65;;
17038;SDS011;8636;55.750;13.202;2023-05-29T11:41:01;2.50;;;0.90;;
17038;SDS011;8636;55.750;13.202;2023-05-29T11:43:29;1.10;;;0.70;;
17038;SDS011;8636;55.750;13.202;2023-05-29T11:46:15;1.58;;;0.80;;
17038;SDS011;8636;55.750;13.202;2023-05-29T11:48:44;2.65;;;0.90;;
17038;SDS011;8636;55.750;13.202;2023-05-29T11:51:20;3.00;;;0.90;;
17038;SDS011;8636;55.750;13.202;2023-05-29T11:53:49;1.35;;;0.60;;
17038;SDS011;8636;55.750;13.202;2023-05-29T11:56:31;4.45;;;1.02;;
17038;SDS011;8636;55.750;13.202;2023-05-29T11:58:59;3.05;;;1.00;;
17038;SDS011;8636;55.750;13.202;2023-05-29T12:01:37;2.58;;;0.65;;
17038;SDS011;8636;55.750;13.202;2023-05-29T12:04:15;2.67;;;1.13;;
17038;SDS011;8636;55.750;13.202;2023-05-29T12:06:49;2.10;;;0.95;;
17038;SDS011;8636;55.750;13.202;2023-05-29T12:09:25;1.25;;;0.70;;
17038;SDS011;8636;55.750;13.202;2023-05-29T12:12:01;4.50;;;0.90;;
17038;SDS011;8636;55.750;13.202;2023-05-29T12:14:29;4.45;;;0.88;;
17038;SDS011;8636;55.750;13.202;2023-05-29T12:16:57;1.67;;;0.73;;
17038;SDS011;8636;55.750;13.202;2023-05-29T12:19:32;2.45;;;0.85;;
17038;SDS011;8636;55.750;13.202;2023-05-29T12:22:00;1.35;;;0.80;;
17038;SDS011;8636;55.750;13.202;2023-05-29T12:24:30;1.95;;;0.80;;
17038;SDS011;8636;55.750;13.202;2023-05-29T12:27:09;4.43;;;1.05;;
17038;SDS011;8636;55.750;13.202;2023-05-29T12:29:37;0.70;;;0.70;;
17038;SDS011;8636;55.750;13.202;2023-05-29T12:32:11;2.72;;;0.93;;
17038;SDS011;8636;55.750;13.202;2023-05-29T12:34:39;0.88;;;0.80;;
17038;SDS011;8636;55.750;13.202;2023-05-29T12:37:08;0.85;;;0.60;;
17038;SDS011;8636;55.750;13.202;2023-05-29T12:42:43;2.25;;;0.85;;
17038;SDS011;8636;55.750;13.202;2023-05-29T12:45:31;2.35;;;0.73;;
17038;SDS011;8636;55.750;13.202;2023-05-29T12:48:01;2.22;;;0.90;;
17038;SDS011;8636;55.750;13.202;2023-05-29T12:50:38;2.67;;;0.82;;
17038;SDS011;8636;55.750;13.202;2023-05-29T12:53:07;1.90;;;0.93;;
17038;SDS011;8636;55.750;13.202;2023-05-29T12:55:38;3.72;;;0.82;;
17038;SDS011;8636;55.750;13.202;2023-05-29T12:58:15;4.72;;;1.30;;
17038;SDS011;8636;55.750;13.202;2023-05-29T13:00:43;1.55;;;0.70;;
17038;SDS011;8636;55.750;13.202;2023-05-29T13:03:12;6.47;;;1.02;;
17038;SDS011;8636;55.750;13.202;2023-05-29T13:05:47;3.00;;;1.17;;
17038;SDS011;8636;55.750;13.202;2023-05-29T13:08:15;3.28;;;0.95;;
17038;SDS011;8636;55.750;13.202;2023-05-29T13:10:44;1.98;;;1.15;;
17038;SDS011;8636;55.750;13.202;2023-05-29T13:13:19;1.23;;;0.85;;
17038;SDS011;8636;55.750;13.202;2023-05-29T13:15:48;3.33;;;0.82;;
17038;SDS011;8636;55.750;13.202;2023-05-29T13:18:17;2.15;;;0.98;;
17038;SDS011;8636;55.750;13.202;2023-05-29T13:20:51;19.85;;;2.13;;
17038;SDS011;8636;55.750;13.202;2023-05-29T13:23:19;3.15;;;0.77;;
17038;SDS011;8636;55.750;13.202;2023-05-29T13:25:49;5.57;;;0.82;;
17038;SDS011;8636;55.750;13.202;2023-05-29T13:28:23;2.20;;;0.60;;
17038;SDS011;8636;55.750;13.202;2023-05-29T13:30:53;1.58;;;0.80;;
17038;SDS011;8636;55.750;13.202;2023-05-29T13:33:21;2.53;;;0.95;;
17038;SDS011;8636;55.750;13.202;2023-05-29T13:35:55;2.03;;;0.90;;
17038;SDS011;8636;55.750;13.202;2023-05-29T13:38:24;3.95;;;0.80;;
17038;SDS011;8636;55.750;13.202;2023-05-29T13:40:53;1.30;;;1.02;;
17038;SDS011;8636;55.750;13.202;2023-05-29T13:43:27;2.60;;;1.00;;
17038;SDS011;8636;55.750;13.202;2023-05-29T13:46:09;2.50;;;0.80;;
17038;SDS011;8636;55.750;13.202;2023-05-29T13:48:44;2.55;;;0.90;;
17038;SDS011;8636;55.750;13.202;2023-05-29T13:51:12;2.28;;;0.93;;
17038;SDS011;8636;55.750;13.202;2023-05-29T13:53:40;2.05;;;0.80;;
17038;SDS011;8636;55.750;13.202;2023-05-29T13:56:16;2.42;;;1.00;;
17038;SDS011;8636;55.750;13.202;2023-05-29T13:58:44;2.03;;;0.70;;
17038;SDS011;8636;55.750;13.202;2023-05-29T14:01:12;2.20;;;0.80;;
17038;SDS011;8636;55.750;13.202;2023-05-29T14:03:47;2.10;;;1.02;;
17038;SDS011;8636;55.750;13.202;2023-05-29T14:06:15;3.53;;;0.90;;
17038;SDS011;8636;55.750;13.202;2023-05-29T14:08:58;1.83;;;0.82;;
17038;SDS011;8636;55.750;13.202;2023-05-29T14:11:27;2.88;;;0.90;;
17038;SDS011;8636;55.750;13.202;2023-05-29T14:13:55;2.67;;;0.93;;
17038;SDS011;8636;55.750;13.202;2023-05-29T14:16:30;1.67;;;0.80;;
17038;SDS011;8636;55.750;13.202;2023-05-29T14:18:58;2.85;;;0.90;;
17038;SDS011;8636;55.750;13.202;2023-05-29T14:21:27;2.30;;;0.70;;
17038;SDS011;8636;55.750;13.202;2023-05-29T14:24:02;2.25;;;0.85;;
17038;SDS011;8636;55.750;13.202;2023-05-29T14:26:34;1.83;;;1.02;;
17038;SDS011;8636;55.750;13.202;2023-05-29T14:29:10;1.73;;;0.95;;
17038;SDS011;8636;55.750;13.202;2023-05-29T14:31:40;2.10;;;0.93;;
17038;SDS011;8636;55.750;13.202;2023-05-29T14:34:15;3.08;;;0.95;;
17038;SDS011;8636;55.750;13.202;2023-05-29T14:36:43;2.22;;;0.90;;
17038;SDS011;8636;55.750;13.202;2023-05-29T14:39:11;2.65;;;0.82;;
17038;SDS011;8636;55.750;13.202;2023-05-29T14:41:47;2.40;;;0.93;;
17038;SDS011;8636;55.750;13.202;2023-05-29T14:44:21;2.83;;;1.20;;
17038;SDS011;8636;55.750;13.202;2023-05-29T14:46:55;4.60;;;1.08;;
17038;SDS011;8636;55.750;13.202;2023-05-29T14:49:24;2.45;;;1.05;;
17038;SDS011;8636;55.750;13.202;2023-05-29T14:51:54;1.63;;;0.70;;
17038;SDS011;8636;55.750;13.202;2023-05-29T14:54:29;1.80;;;0.93;;
17038;SDS011;8636;55.750;13.202;2023-05-29T14:56:58;1.45;;;1.00;;
17038;SDS011;8636;55.750;13.202;2023-05-29T14:59:26;1.80;;;0.93;;
17038;SDS011;8636;55.750;13.202;2023-05-29T15:02:01;1.13;;;0.75;;
17038;SDS011;8636;55.750;13.202;2023-05-29T15:04:29;2.33;;;0.95;;
17038;SDS011;8636;55.750;13.202;2023-05-29T15:06:56;2.38;;;0.93;;
17038;SDS011;8636;55.750;13.202;2023-05-29T15:09:32;2.05;;;0.95;;
17038;SDS011;8636;55.750;13.202;2023-05-29T15:12:02;3.13;;;0.90;;
17038;SDS011;8636;55.750;13.202;2023-05-29T15:14:30;4.05;;;1.17;;
17038;SDS011;8636;55.750;13.202;2023-05-29T15:17:05;2.75;;;1.17;;
17038;SDS011;8636;55.750;13.202;2023-05-29T15:19:33;1.95;;;0.95;;
17038;SDS011;8636;55.750;13.202;2023-05-29T15:22:01;4.13;;;0.88;;